sensor_id;sensor_type;location;lat;lon;timestamp;P1;durP1;ratioP1;P2;durP2;ratioP2
48743;SDS011;34538;48.836;9.174;2023-02-12T00:01:15;26.55;;;16.33;;
48743;SDS011;34538;48.836;9.174;2023-02-12T00:03:42;27.83;;;16.40;;
48743;SDS011;34538;48.836;9.174;2023-02-12T00:06:09;28.73;;;16.75;;
48743;SDS011;34538;48.836;9.174;2023-02-12T00:08:37;32.47;;;17.27;;
48743;SDS011;34538;48.836;9.174;2023-02-12T00:11:08;30.95;;;16.33;;
48743;SDS011;34538;48.836;9.174;2023-02-12T00:13:36;31.65;;;16.75;;
48743;SDS011;34538;48.836;9.174;2023-02-12T00:16:05;33.00;;;17.02;;
48743;SDS011;34538;48.836;9.174;2023-02-12T00:18:33;32.90;;;17.23;;
48743;SDS011;34538;48.836;9.174;2023-02-12T00:21:00;26.83;;;16.20;;
48743;SDS011;34538;48.836;9.174;2023-02-12T00:23:28;31.75;;;17.40;;
48743;SDS011;34538;48.836;9.174;2023-02-12T00:25:55;26.50;;;16.35;;
48743;SDS011;34538;48.836;9.174;2023-02-12T00:28:21;32.97;;;17.83;;
48743;SDS011;34538;48.836;9.174;2023-02-12T00:30:48;28.98;;;16.42;;
48743;SDS011;34538;48.836;9.174;2023-02-12T00:33:17;26.83;;;15.85;;
48743;SDS011;34538;48.836;9.174;2023-02-12T00:35:43;28.02;;;15.77;;
48743;SDS011;34538;48.836;9.174;2023-02-12T00:38:10;28.58;;;15.90;;
48743;SDS011;34538;48.836;9.174;2023-02-12T00:40:37;29.13;;;16.48;;
48743;SDS011;34538;48.836;9.174;2023-02-12T00:43:04;26.20;;;16.30;;
48743;SDS011;34538;48.836;9.174;2023-02-12T00:45:31;27.80;;;15.80;;
48743;SDS011;34538;48.836;9.174;2023-02-12T00:47:58;27.48;;;15.38;;
48743;SDS011;34538;48.836;9.174;2023-02-12T00:50:26;28.70;;;15.90;;
48743;SDS011;34538;48.836;9.174;2023-02-12T00:52:54;30.70;;;16.85;;
48743;SDS011;34538;48.836;9.174;2023-02-12T00:55:21;24.75;;;14.48;;
48743;SDS011;34538;48.836;9.174;2023-02-12T00:57:47;25.55;;;14.82;;
48743;SDS011;34538;48.836;9.174;2023-02-12T01:00:14;27.55;;;15.15;;
48743;SDS011;34538;48.836;9.174;2023-02-12T01:02:42;25.98;;;15.38;;
48743;SDS011;34538;48.836;9.174;2023-02-12T01:05:08;25.95;;;15.65;;
48743;SDS011;34538;48.836;9.174;2023-02-12T01:07:37;29.05;;;15.63;;
48743;SDS011;34538;48.836;9.174;2023-02-12T01:10:05;27.67;;;15.10;;
48743;SDS011;34538;48.836;9.174;2023-02-12T01:12:33;28.48;;;16.30;;
48743;SDS011;34538;48.836;9.174;2023-02-12T01:15:00;28.05;;;15.55;;
48743;SDS011;34538;48.836;9.174;2023-02-12T01:17:27;26.50;;;15.48;;
48743;SDS011;34538;48.836;9.174;2023-02-12T01:19:55;27.75;;;15.85;;
48743;SDS011;34538;48.836;9.174;2023-02-12T01:22:24;26.77;;;15.98;;
48743;SDS011;34538;48.836;9.174;2023-02-12T01:24:52;28.67;;;15.40;;
48743;SDS011;34538;48.836;9.174;2023-02-12T01:27:19;25.10;;;14.77;;
48743;SDS011;34538;48.836;9.174;2023-02-12T01:29:46;25.15;;;14.65;;
48743;SDS011;34538;48.836;9.174;2023-02-12T01:32:13;31.88;;;17.98;;
48743;SDS011;34538;48.836;9.174;2023-02-12T01:34:39;26.30;;;15.48;;
48743;SDS011;34538;48.836;9.174;2023-02-12T01:37:06;25.35;;;15.15;;
48743;SDS011;34538;48.836;9.174;2023-02-12T01:39:33;26.58;;;15.05;;
48743;SDS011;34538;48.836;9.174;2023-02-12T01:42:02;25.13;;;14.80;;
48743;SDS011;34538;48.836;9.174;2023-02-12T01:44:30;26.88;;;15.43;;
48743;SDS011;34538;48.836;9.174;2023-02-12T01:46:59;25.70;;;15.20;;
48743;SDS011;34538;48.836;9.174;2023-02-12T01:49:29;26.98;;;16.08;;
48743;SDS011;34538;48.836;9.174;2023-02-12T01:52:02;29.73;;;15.95;;
48743;SDS011;34538;48.836;9.174;2023-02-12T01:54:32;25.75;;;14.73;;
48743;SDS011;34538;48.836;9.174;2023-02-12T01:57:02;26.23;;;14.80;;
48743;SDS011;34538;48.836;9.174;2023-02-12T01:59:30;30.95;;;17.40;;
48743;SDS011;34538;48.836;9.174;2023-02-12T02:01:58;31.75;;;16.20;;
48743;SDS011;34538;48.836;9.174;2023-02-12T02:04:26;26.48;;;15.85;;
48743;SDS011;34538;48.836;9.174;2023-02-12T02:06:56;25.85;;;16.52;;
48743;SDS011;34538;48.836;9.174;2023-02-12T02:09:24;27.13;;;16.05;;
48743;SDS011;34538;48.836;9.174;2023-02-12T02:11:53;28.75;;;16.42;;
48743;SDS011;34538;48.836;9.174;2023-02-12T02:14:39;30.83;;;15.35;;
48743;SDS011;34538;48.836;9.174;2023-02-12T02:17:25;28.60;;;15.35;;
48743;SDS011;34538;48.836;9.174;2023-02-12T02:20:15;27.60;;;16.17;;
48743;SDS011;34538;48.836;9.174;2023-02-12T02:23:05;29.73;;;16.75;;
48743;SDS011;34538;48.836;9.174;2023-02-12T02:25:56;32.50;;;17.30;;
48743;SDS011;34538;48.836;9.174;2023-02-12T02:29:03;19.33;;;11.70;;
48743;SDS011;34538;48.836;9.174;2023-02-12T02:31:46;28.90;;;16.50;;
48743;SDS011;34538;48.836;9.174;2023-02-12T02:34:19;32.13;;;17.02;;
48743;SDS011;34538;48.836;9.174;2023-02-12T02:36:55;25.90;;;15.98;;
48743;SDS011;34538;48.836;9.174;2023-02-12T02:39:27;30.10;;;16.00;;
48743;SDS011;34538;48.836;9.174;2023-02-12T02:42:03;32.28;;;16.23;;
48743;SDS011;34538;48.836;9.174;2023-02-12T02:44:35;27.38;;;16.70;;
48743;SDS011;34538;48.836;9.174;2023-02-12T02:47:10;28.48;;;15.50;;
48743;SDS011;34538;48.836;9.174;2023-02-12T02:49:40;29.85;;;16.55;;
48743;SDS011;34538;48.836;9.174;2023-02-12T02:52:13;30.33;;;16.67;;
48743;SDS011;34538;48.836;9.174;2023-02-12T02:54:47;25.38;;;15.40;;
48743;SDS011;34538;48.836;9.174;2023-02-12T02:57:16;26.73;;;15.63;;
48743;SDS011;34538;48.836;9.174;2023-02-12T02:59:48;27.42;;;15.48;;
48743;SDS011;34538;48.836;9.174;2023-02-12T03:02:22;29.25;;;16.20;;
48743;SDS011;34538;48.836;9.174;2023-02-12T03:04:53;31.38;;;16.73;;
48743;SDS011;34538;48.836;9.174;2023-02-12T03:07:24;33.40;;;17.85;;
48743;SDS011;34538;48.836;9.174;2023-02-12T03:09:54;31.17;;;16.90;;
48743;SDS011;34538;48.836;9.174;2023-02-12T03:12:27;31.05;;;18.25;;
48743;SDS011;34538;48.836;9.174;2023-02-12T03:15:00;28.08;;;16.65;;
48743;SDS011;34538;48.836;9.174;2023-02-12T03:17:33;28.13;;;16.20;;
48743;SDS011;34538;48.836;9.174;2023-02-12T03:20:03;27.80;;;16.38;;
48743;SDS011;34538;48.836;9.174;2023-02-12T03:22:35;27.23;;;16.08;;
48743;SDS011;34538;48.836;9.174;2023-02-12T03:25:06;32.90;;;17.35;;
48743;SDS011;34538;48.836;9.174;2023-02-12T03:27:40;28.20;;;16.85;;
48743;SDS011;34538;48.836;9.174;2023-02-12T03:30:11;27.75;;;16.42;;
48743;SDS011;34538;48.836;9.174;2023-02-12T03:32:43;30.10;;;16.80;;
48743;SDS011;34538;48.836;9.174;2023-02-12T03:35:19;31.38;;;17.05;;
48743;SDS011;34538;48.836;9.174;2023-02-12T03:37:51;27.27;;;16.25;;
48743;SDS011;34538;48.836;9.174;2023-02-12T03:40:23;25.80;;;15.38;;
48743;SDS011;34538;48.836;9.174;2023-02-12T03:42:56;30.83;;;17.60;;
48743;SDS011;34538;48.836;9.174;2023-02-12T03:45:29;30.10;;;17.27;;
48743;SDS011;34538;48.836;9.174;2023-02-12T03:48:07;32.17;;;17.73;;
48743;SDS011;34538;48.836;9.174;2023-02-12T03:50:38;30.92;;;17.42;;
48743;SDS011;34538;48.836;9.174;2023-02-12T03:53:10;28.30;;;16.92;;
48743;SDS011;34538;48.836;9.174;2023-02-12T03:55:39;29.33;;;16.75;;
48743;SDS011;34538;48.836;9.174;2023-02-12T03:58:09;29.10;;;17.30;;
48743;SDS011;34538;48.836;9.174;2023-02-12T04:00:41;30.10;;;17.17;;
48743;SDS011;34538;48.836;9.174;2023-02-12T04:03:10;30.92;;;16.98;;
48743;SDS011;34538;48.836;9.174;2023-02-12T04:05:37;31.90;;;18.77;;
48743;SDS011;34538;48.836;9.174;2023-02-12T04:08:05;27.67;;;17.10;;
48743;SDS011;34538;48.836;9.174;2023-02-12T04:10:34;31.35;;;17.33;;
48743;SDS011;34538;48.836;9.174;2023-02-12T04:13:10;33.63;;;18.83;;
48743;SDS011;34538;48.836;9.174;2023-02-12T04:15:46;30.25;;;17.23;;
48743;SDS011;34538;48.836;9.174;2023-02-12T04:18:23;29.10;;;17.38;;
48743;SDS011;34538;48.836;9.174;2023-02-12T04:20:58;28.50;;;17.00;;
48743;SDS011;34538;48.836;9.174;2023-02-12T04:23:35;30.80;;;17.90;;
48743;SDS011;34538;48.836;9.174;2023-02-12T04:26:10;30.70;;;17.67;;
48743;SDS011;34538;48.836;9.174;2023-02-12T04:28:46;28.50;;;16.88;;
48743;SDS011;34538;48.836;9.174;2023-02-12T04:31:22;33.58;;;18.70;;
48743;SDS011;34538;48.836;9.174;2023-02-12T04:33:57;34.00;;;17.65;;
48743;SDS011;34538;48.836;9.174;2023-02-12T04:36:34;34.90;;;19.00;;
48743;SDS011;34538;48.836;9.174;2023-02-12T04:39:05;30.70;;;18.00;;
48743;SDS011;34538;48.836;9.174;2023-02-12T04:41:36;33.20;;;18.45;;
48743;SDS011;34538;48.836;9.174;2023-02-12T04:44:16;32.33;;;18.08;;
48743;SDS011;34538;48.836;9.174;2023-02-12T04:46:46;30.67;;;18.58;;
48743;SDS011;34538;48.836;9.174;2023-02-12T04:49:15;29.45;;;17.60;;
48743;SDS011;34538;48.836;9.174;2023-02-12T04:51:43;31.83;;;18.23;;
48743;SDS011;34538;48.836;9.174;2023-02-12T04:54:11;30.23;;;17.55;;
48743;SDS011;34538;48.836;9.174;2023-02-12T04:56:38;31.63;;;19.13;;
48743;SDS011;34538;48.836;9.174;2023-02-12T04:59:05;32.22;;;17.17;;
48743;SDS011;34538;48.836;9.174;2023-02-12T05:01:32;31.88;;;20.00;;
48743;SDS011;34538;48.836;9.174;2023-02-12T05:04:00;30.67;;;18.92;;
48743;SDS011;34538;48.836;9.174;2023-02-12T05:06:29;29.33;;;17.75;;
48743;SDS011;34538;48.836;9.174;2023-02-12T05:08:56;27.27;;;16.30;;
48743;SDS011;34538;48.836;9.174;2023-02-12T05:11:23;34.35;;;18.77;;
48743;SDS011;34538;48.836;9.174;2023-02-12T05:13:50;30.60;;;17.23;;
48743;SDS011;34538;48.836;9.174;2023-02-12T05:16:18;30.02;;;17.73;;
48743;SDS011;34538;48.836;9.174;2023-02-12T05:18:46;30.30;;;17.38;;
48743;SDS011;34538;48.836;9.174;2023-02-12T05:21:13;29.02;;;17.40;;
48743;SDS011;34538;48.836;9.174;2023-02-12T05:23:42;30.77;;;18.00;;
48743;SDS011;34538;48.836;9.174;2023-02-12T05:26:09;28.52;;;17.73;;
48743;SDS011;34538;48.836;9.174;2023-02-12T05:28:38;30.77;;;17.17;;
48743;SDS011;34538;48.836;9.174;2023-02-12T05:31:06;28.42;;;17.05;;
48743;SDS011;34538;48.836;9.174;2023-02-12T05:33:34;30.83;;;17.60;;
48743;SDS011;34538;48.836;9.174;2023-02-12T05:36:02;33.47;;;17.38;;
48743;SDS011;34538;48.836;9.174;2023-02-12T05:38:30;28.33;;;17.13;;
48743;SDS011;34538;48.836;9.174;2023-02-12T05:41:01;31.00;;;17.13;;
48743;SDS011;34538;48.836;9.174;2023-02-12T05:43:29;31.80;;;17.00;;
48743;SDS011;34538;48.836;9.174;2023-02-12T05:45:57;27.30;;;17.08;;
48743;SDS011;34538;48.836;9.174;2023-02-12T05:48:24;27.45;;;15.95;;
48743;SDS011;34538;48.836;9.174;2023-02-12T05:50:51;31.05;;;17.63;;
48743;SDS011;34538;48.836;9.174;2023-02-12T05:53:18;28.05;;;17.25;;
48743;SDS011;34538;48.836;9.174;2023-02-12T05:55:45;28.65;;;17.45;;
48743;SDS011;34538;48.836;9.174;2023-02-12T05:58:13;29.40;;;16.85;;
48743;SDS011;34538;48.836;9.174;2023-02-12T06:00:40;28.58;;;17.13;;
48743;SDS011;34538;48.836;9.174;2023-02-12T06:03:07;26.83;;;16.20;;
48743;SDS011;34538;48.836;9.174;2023-02-12T06:05:33;34.03;;;17.00;;
48743;SDS011;34538;48.836;9.174;2023-02-12T06:08:00;26.08;;;16.38;;
48743;SDS011;34538;48.836;9.174;2023-02-12T06:10:27;26.60;;;16.27;;
48743;SDS011;34538;48.836;9.174;2023-02-12T06:12:54;27.48;;;16.80;;
48743;SDS011;34538;48.836;9.174;2023-02-12T06:15:22;29.50;;;16.15;;
48743;SDS011;34538;48.836;9.174;2023-02-12T06:17:49;30.83;;;17.15;;
48743;SDS011;34538;48.836;9.174;2023-02-12T06:20:16;30.52;;;17.00;;
48743;SDS011;34538;48.836;9.174;2023-02-12T06:22:43;31.05;;;17.20;;
48743;SDS011;34538;48.836;9.174;2023-02-12T06:25:10;31.40;;;17.40;;
48743;SDS011;34538;48.836;9.174;2023-02-12T06:27:36;28.92;;;16.98;;
48743;SDS011;34538;48.836;9.174;2023-02-12T06:30:03;33.13;;;16.70;;
48743;SDS011;34538;48.836;9.174;2023-02-12T06:32:32;30.20;;;16.80;;
48743;SDS011;34538;48.836;9.174;2023-02-12T06:34:59;31.02;;;17.42;;
48743;SDS011;34538;48.836;9.174;2023-02-12T06:37:26;29.80;;;17.58;;
48743;SDS011;34538;48.836;9.174;2023-02-12T06:39:53;27.05;;;17.10;;
48743;SDS011;34538;48.836;9.174;2023-02-12T06:42:19;28.27;;;17.60;;
48743;SDS011;34538;48.836;9.174;2023-02-12T06:44:46;30.25;;;17.10;;
48743;SDS011;34538;48.836;9.174;2023-02-12T06:47:13;30.60;;;17.38;;
48743;SDS011;34538;48.836;9.174;2023-02-12T06:49:41;29.77;;;18.02;;
48743;SDS011;34538;48.836;9.174;2023-02-12T06:52:08;30.25;;;17.67;;
48743;SDS011;34538;48.836;9.174;2023-02-12T06:54:35;34.20;;;18.75;;
48743;SDS011;34538;48.836;9.174;2023-02-12T06:57:02;28.70;;;18.00;;
48743;SDS011;34538;48.836;9.174;2023-02-12T06:59:29;30.85;;;17.95;;
48743;SDS011;34538;48.836;9.174;2023-02-12T07:01:56;29.00;;;17.70;;
48743;SDS011;34538;48.836;9.174;2023-02-12T07:04:22;31.52;;;17.33;;
48743;SDS011;34538;48.836;9.174;2023-02-12T07:06:51;33.80;;;17.92;;
48743;SDS011;34538;48.836;9.174;2023-02-12T07:09:17;32.17;;;17.63;;
48743;SDS011;34538;48.836;9.174;2023-02-12T07:11:44;29.77;;;17.98;;
48743;SDS011;34538;48.836;9.174;2023-02-12T07:14:12;34.78;;;18.73;;
48743;SDS011;34538;48.836;9.174;2023-02-12T07:16:40;34.55;;;18.27;;
48743;SDS011;34538;48.836;9.174;2023-02-12T07:19:07;33.95;;;18.98;;
48743;SDS011;34538;48.836;9.174;2023-02-12T07:21:36;29.80;;;18.10;;
48743;SDS011;34538;48.836;9.174;2023-02-12T07:24:05;31.60;;;18.42;;
48743;SDS011;34538;48.836;9.174;2023-02-12T07:26:33;30.48;;;17.45;;
48743;SDS011;34538;48.836;9.174;2023-02-12T07:29:00;31.25;;;18.48;;
48743;SDS011;34538;48.836;9.174;2023-02-12T07:31:28;31.40;;;18.25;;
48743;SDS011;34538;48.836;9.174;2023-02-12T07:33:55;30.80;;;18.83;;
48743;SDS011;34538;48.836;9.174;2023-02-12T07:36:24;29.23;;;17.50;;
48743;SDS011;34538;48.836;9.174;2023-02-12T07:38:52;31.67;;;17.55;;
48743;SDS011;34538;48.836;9.174;2023-02-12T07:41:22;28.63;;;17.52;;
48743;SDS011;34538;48.836;9.174;2023-02-12T07:43:52;34.40;;;19.40;;
48743;SDS011;34538;48.836;9.174;2023-02-12T07:46:21;28.35;;;17.50;;
48743;SDS011;34538;48.836;9.174;2023-02-12T07:48:54;35.15;;;19.45;;
48743;SDS011;34538;48.836;9.174;2023-02-12T07:51:21;31.75;;;18.85;;
48743;SDS011;34538;48.836;9.174;2023-02-12T07:53:48;33.95;;;19.55;;
48743;SDS011;34538;48.836;9.174;2023-02-12T07:56:16;32.10;;;18.17;;
48743;SDS011;34538;48.836;9.174;2023-02-12T07:58:47;31.38;;;18.25;;
48743;SDS011;34538;48.836;9.174;2023-02-12T08:01:15;29.05;;;18.10;;
48743;SDS011;34538;48.836;9.174;2023-02-12T08:03:44;31.50;;;18.58;;
48743;SDS011;34538;48.836;9.174;2023-02-12T08:06:12;33.28;;;18.15;;
48743;SDS011;34538;48.836;9.174;2023-02-12T08:08:40;32.03;;;19.38;;
48743;SDS011;34538;48.836;9.174;2023-02-12T08:11:08;30.48;;;17.15;;
48743;SDS011;34538;48.836;9.174;2023-02-12T08:13:37;31.20;;;16.70;;
48743;SDS011;34538;48.836;9.174;2023-02-12T08:16:06;30.20;;;18.77;;
48743;SDS011;34538;48.836;9.174;2023-02-12T08:18:34;27.92;;;17.83;;
48743;SDS011;34538;48.836;9.174;2023-02-12T08:21:01;32.47;;;19.25;;
48743;SDS011;34538;48.836;9.174;2023-02-12T08:23:29;30.13;;;18.17;;
48743;SDS011;34538;48.836;9.174;2023-02-12T08:26:06;26.67;;;16.98;;
48743;SDS011;34538;48.836;9.174;2023-02-12T08:28:36;30.20;;;18.38;;
48743;SDS011;34538;48.836;9.174;2023-02-12T08:31:06;32.72;;;18.90;;
48743;SDS011;34538;48.836;9.174;2023-02-12T08:33:35;31.55;;;18.60;;
48743;SDS011;34538;48.836;9.174;2023-02-12T08:36:03;29.13;;;19.08;;
48743;SDS011;34538;48.836;9.174;2023-02-12T08:38:31;29.42;;;18.45;;
48743;SDS011;34538;48.836;9.174;2023-02-12T08:41:02;33.22;;;18.55;;
48743;SDS011;34538;48.836;9.174;2023-02-12T08:43:30;33.25;;;19.25;;
48743;SDS011;34538;48.836;9.174;2023-02-12T08:46:00;32.83;;;19.35;;
48743;SDS011;34538;48.836;9.174;2023-02-12T08:48:29;34.65;;;20.02;;
48743;SDS011;34538;48.836;9.174;2023-02-12T08:51:01;31.73;;;19.02;;
48743;SDS011;34538;48.836;9.174;2023-02-12T08:53:32;36.67;;;21.15;;
48743;SDS011;34538;48.836;9.174;2023-02-12T08:56:00;33.35;;;19.98;;
48743;SDS011;34538;48.836;9.174;2023-02-12T08:58:27;32.72;;;19.40;;
48743;SDS011;34538;48.836;9.174;2023-02-12T09:00:54;33.90;;;20.35;;
48743;SDS011;34538;48.836;9.174;2023-02-12T09:03:21;35.58;;;20.40;;
48743;SDS011;34538;48.836;9.174;2023-02-12T09:05:49;35.42;;;19.75;;
48743;SDS011;34538;48.836;9.174;2023-02-12T09:08:16;34.42;;;19.27;;
48743;SDS011;34538;48.836;9.174;2023-02-12T09:10:43;33.97;;;21.40;;
48743;SDS011;34538;48.836;9.174;2023-02-12T09:13:11;30.38;;;19.35;;
48743;SDS011;34538;48.836;9.174;2023-02-12T09:15:39;33.65;;;19.77;;
48743;SDS011;34538;48.836;9.174;2023-02-12T09:18:07;34.13;;;18.77;;
48743;SDS011;34538;48.836;9.174;2023-02-12T09:20:35;34.30;;;20.50;;
48743;SDS011;34538;48.836;9.174;2023-02-12T09:23:05;32.25;;;20.10;;
48743;SDS011;34538;48.836;9.174;2023-02-12T09:25:32;32.17;;;20.20;;
48743;SDS011;34538;48.836;9.174;2023-02-12T09:28:00;35.10;;;20.67;;
48743;SDS011;34538;48.836;9.174;2023-02-12T09:30:27;37.75;;;21.20;;
48743;SDS011;34538;48.836;9.174;2023-02-12T09:32:53;32.35;;;19.88;;
48743;SDS011;34538;48.836;9.174;2023-02-12T09:35:21;31.90;;;19.58;;
48743;SDS011;34538;48.836;9.174;2023-02-12T09:37:48;36.80;;;20.55;;
48743;SDS011;34538;48.836;9.174;2023-02-12T09:40:17;36.33;;;20.58;;
48743;SDS011;34538;48.836;9.174;2023-02-12T09:42:52;33.38;;;20.27;;
48743;SDS011;34538;48.836;9.174;2023-02-12T09:45:29;31.75;;;19.67;;
48743;SDS011;34538;48.836;9.174;2023-02-12T09:48:03;34.60;;;20.70;;
48743;SDS011;34538;48.836;9.174;2023-02-12T09:50:41;38.03;;;21.02;;
48743;SDS011;34538;48.836;9.174;2023-02-12T09:53:11;35.03;;;21.88;;
48743;SDS011;34538;48.836;9.174;2023-02-12T09:55:41;35.08;;;20.50;;
48743;SDS011;34538;48.836;9.174;2023-02-12T09:58:10;32.95;;;20.30;;
48743;SDS011;34538;48.836;9.174;2023-02-12T10:00:40;36.80;;;20.63;;
48743;SDS011;34538;48.836;9.174;2023-02-12T10:03:10;31.90;;;18.67;;
48743;SDS011;34538;48.836;9.174;2023-02-12T10:05:40;36.92;;;19.60;;
48743;SDS011;34538;48.836;9.174;2023-02-12T10:08:14;32.22;;;20.02;;
48743;SDS011;34538;48.836;9.174;2023-02-12T10:11:00;34.03;;;20.05;;
48743;SDS011;34538;48.836;9.174;2023-02-12T10:13:40;31.88;;;18.63;;
48743;SDS011;34538;48.836;9.174;2023-02-12T10:16:13;33.33;;;20.30;;
48743;SDS011;34538;48.836;9.174;2023-02-12T10:21:53;31.92;;;20.00;;
48743;SDS011;34538;48.836;9.174;2023-02-12T10:24:34;31.25;;;18.25;;
48743;SDS011;34538;48.836;9.174;2023-02-12T10:27:24;33.35;;;20.15;;
48743;SDS011;34538;48.836;9.174;2023-02-12T10:30:12;28.92;;;17.40;;
48743;SDS011;34538;48.836;9.174;2023-02-12T10:32:43;28.90;;;17.35;;
48743;SDS011;34538;48.836;9.174;2023-02-12T10:35:12;26.88;;;15.85;;
48743;SDS011;34538;48.836;9.174;2023-02-12T10:37:42;33.10;;;18.73;;
48743;SDS011;34538;48.836;9.174;2023-02-12T10:42:45;31.92;;;16.55;;
48743;SDS011;34538;48.836;9.174;2023-02-12T10:45:15;28.02;;;17.27;;
48743;SDS011;34538;48.836;9.174;2023-02-12T10:47:43;27.73;;;16.02;;
48743;SDS011;34538;48.836;9.174;2023-02-12T10:50:14;29.23;;;17.02;;
48743;SDS011;34538;48.836;9.174;2023-02-12T10:52:46;27.83;;;16.33;;
48743;SDS011;34538;48.836;9.174;2023-02-12T10:55:24;26.90;;;15.88;;
48743;SDS011;34538;48.836;9.174;2023-02-12T10:57:54;31.10;;;16.92;;
48743;SDS011;34538;48.836;9.174;2023-02-12T11:00:23;25.70;;;15.63;;
48743;SDS011;34538;48.836;9.174;2023-02-12T11:03:00;26.80;;;15.40;;
48743;SDS011;34538;48.836;9.174;2023-02-12T11:05:30;28.85;;;16.35;;
48743;SDS011;34538;48.836;9.174;2023-02-12T11:07:58;26.70;;;16.25;;
48743;SDS011;34538;48.836;9.174;2023-02-12T11:10:26;25.13;;;14.45;;
48743;SDS011;34538;48.836;9.174;2023-02-12T11:12:57;28.97;;;16.13;;
48743;SDS011;34538;48.836;9.174;2023-02-12T11:15:25;26.92;;;15.75;;
48743;SDS011;34538;48.836;9.174;2023-02-12T11:17:57;26.83;;;15.52;;
48743;SDS011;34538;48.836;9.174;2023-02-12T11:20:26;22.10;;;13.02;;
48743;SDS011;34538;48.836;9.174;2023-02-12T11:22:55;16.70;;;7.63;;
48743;SDS011;34538;48.836;9.174;2023-02-12T11:25:24;13.60;;;8.00;;
48743;SDS011;34538;48.836;9.174;2023-02-12T11:28:01;11.85;;;5.32;;
48743;SDS011;34538;48.836;9.174;2023-02-12T11:30:31;7.70;;;4.45;;
48743;SDS011;34538;48.836;9.174;2023-02-12T11:33:13;7.60;;;4.60;;
48743;SDS011;34538;48.836;9.174;2023-02-12T11:35:48;8.60;;;5.05;;
48743;SDS011;34538;48.836;9.174;2023-02-12T11:38:17;8.40;;;4.32;;
48743;SDS011;34538;48.836;9.174;2023-02-12T11:40:49;7.97;;;4.45;;
48743;SDS011;34538;48.836;9.174;2023-02-12T11:43:20;10.35;;;4.68;;
48743;SDS011;34538;48.836;9.174;2023-02-12T11:45:49;6.30;;;4.05;;
48743;SDS011;34538;48.836;9.174;2023-02-12T11:48:21;6.32;;;3.78;;
48743;SDS011;34538;48.836;9.174;2023-02-12T11:50:51;7.13;;;4.10;;
48743;SDS011;34538;48.836;9.174;2023-02-12T11:53:20;7.28;;;3.85;;
48743;SDS011;34538;48.836;9.174;2023-02-12T11:55:53;7.95;;;4.25;;
48743;SDS011;34538;48.836;9.174;2023-02-12T11:58:23;6.60;;;3.70;;
48743;SDS011;34538;48.836;9.174;2023-02-12T12:00:52;7.13;;;4.00;;
48743;SDS011;34538;48.836;9.174;2023-02-12T12:03:24;7.07;;;4.35;;
48743;SDS011;34538;48.836;9.174;2023-02-12T12:05:58;8.95;;;4.10;;
48743;SDS011;34538;48.836;9.174;2023-02-12T12:08:31;7.50;;;4.13;;
48743;SDS011;34538;48.836;9.174;2023-02-12T12:11:05;9.55;;;4.93;;
48743;SDS011;34538;48.836;9.174;2023-02-12T12:13:40;8.25;;;4.55;;
48743;SDS011;34538;48.836;9.174;2023-02-12T12:16:13;8.93;;;4.95;;
48743;SDS011;34538;48.836;9.174;2023-02-12T12:19:02;8.15;;;4.85;;
48743;SDS011;34538;48.836;9.174;2023-02-12T12:21:54;8.65;;;4.60;;
48743;SDS011;34538;48.836;9.174;2023-02-12T12:24:28;8.77;;;4.75;;
48743;SDS011;34538;48.836;9.174;2023-02-12T12:27:05;8.15;;;4.68;;
48743;SDS011;34538;48.836;9.174;2023-02-12T12:29:51;9.32;;;5.07;;
48743;SDS011;34538;48.836;9.174;2023-02-12T12:32:25;10.43;;;5.38;;
48743;SDS011;34538;48.836;9.174;2023-02-12T12:34:55;7.90;;;3.88;;
48743;SDS011;34538;48.836;9.174;2023-02-12T12:37:25;7.30;;;4.10;;
48743;SDS011;34538;48.836;9.174;2023-02-12T12:40:04;9.98;;;4.68;;
48743;SDS011;34538;48.836;9.174;2023-02-12T12:42:48;7.30;;;4.25;;
48743;SDS011;34538;48.836;9.174;2023-02-12T12:45:30;7.30;;;4.38;;
48743;SDS011;34538;48.836;9.174;2023-02-12T12:48:11;7.30;;;4.32;;
48743;SDS011;34538;48.836;9.174;2023-02-12T12:50:51;8.02;;;4.03;;
48743;SDS011;34538;48.836;9.174;2023-02-12T12:53:41;8.18;;;4.20;;
48743;SDS011;34538;48.836;9.174;2023-02-12T12:56:27;7.13;;;3.88;;
48743;SDS011;34538;48.836;9.174;2023-02-12T12:59:06;8.95;;;4.13;;
48743;SDS011;34538;48.836;9.174;2023-02-12T13:02:11;8.02;;;4.28;;
48743;SDS011;34538;48.836;9.174;2023-02-12T13:05:18;7.63;;;4.30;;
48743;SDS011;34538;48.836;9.174;2023-02-12T13:08:04;7.15;;;3.83;;
48743;SDS011;34538;48.836;9.174;2023-02-12T13:10:39;7.15;;;3.92;;
48743;SDS011;34538;48.836;9.174;2023-02-12T13:13:16;7.93;;;3.92;;
48743;SDS011;34538;48.836;9.174;2023-02-12T13:15:52;6.85;;;3.88;;
48743;SDS011;34538;48.836;9.174;2023-02-12T13:18:27;7.65;;;4.22;;
48743;SDS011;34538;48.836;9.174;2023-02-12T13:21:04;7.38;;;4.28;;
48743;SDS011;34538;48.836;9.174;2023-02-12T13:23:40;6.80;;;3.90;;
48743;SDS011;34538;48.836;9.174;2023-02-12T13:26:14;7.60;;;4.32;;
48743;SDS011;34538;48.836;9.174;2023-02-12T13:28:48;7.90;;;3.83;;
48743;SDS011;34538;48.836;9.174;2023-02-12T13:31:19;9.15;;;4.28;;
48743;SDS011;34538;48.836;9.174;2023-02-12T13:33:50;6.95;;;4.35;;
48743;SDS011;34538;48.836;9.174;2023-02-12T13:36:20;6.93;;;3.88;;
48743;SDS011;34538;48.836;9.174;2023-02-12T13:38:49;7.43;;;3.78;;
48743;SDS011;34538;48.836;9.174;2023-02-12T13:41:21;7.03;;;3.67;;
48743;SDS011;34538;48.836;9.174;2023-02-12T13:43:53;5.75;;;3.20;;
48743;SDS011;34538;48.836;9.174;2023-02-12T13:46:28;6.65;;;3.50;;
48743;SDS011;34538;48.836;9.174;2023-02-12T13:49:04;5.72;;;2.83;;
48743;SDS011;34538;48.836;9.174;2023-02-12T13:51:42;5.90;;;3.47;;
48743;SDS011;34538;48.836;9.174;2023-02-12T13:54:16;6.45;;;3.90;;
48743;SDS011;34538;48.836;9.174;2023-02-12T13:56:51;5.35;;;3.20;;
48743;SDS011;34538;48.836;9.174;2023-02-12T14:05:15;5.13;;;3.00;;
48743;SDS011;34538;48.836;9.174;2023-02-12T14:07:51;6.38;;;3.40;;
48743;SDS011;34538;48.836;9.174;2023-02-12T14:10:21;6.28;;;3.55;;
48743;SDS011;34538;48.836;9.174;2023-02-12T14:12:50;5.90;;;3.03;;
48743;SDS011;34538;48.836;9.174;2023-02-12T14:15:25;5.97;;;2.92;;
48743;SDS011;34538;48.836;9.174;2023-02-12T14:18:02;7.10;;;3.10;;
48743;SDS011;34538;48.836;9.174;2023-02-12T14:20:32;5.68;;;2.83;;
48743;SDS011;34538;48.836;9.174;2023-02-12T14:26:02;4.93;;;2.67;;
48743;SDS011;34538;48.836;9.174;2023-02-12T14:28:44;4.88;;;2.45;;
48743;SDS011;34538;48.836;9.174;2023-02-12T14:31:28;5.43;;;2.58;;
48743;SDS011;34538;48.836;9.174;2023-02-12T14:43:22;4.43;;;2.45;;
48743;SDS011;34538;48.836;9.174;2023-02-12T14:45:51;4.88;;;2.17;;
48743;SDS011;34538;48.836;9.174;2023-02-12T14:48:38;4.13;;;2.17;;
48743;SDS011;34538;48.836;9.174;2023-02-12T14:51:19;3.00;;;1.95;;
48743;SDS011;34538;48.836;9.174;2023-02-12T14:53:53;3.25;;;1.67;;
48743;SDS011;34538;48.836;9.174;2023-02-12T14:56:22;3.10;;;1.75;;
48743;SDS011;34538;48.836;9.174;2023-02-12T14:58:49;2.17;;;1.60;;
48743;SDS011;34538;48.836;9.174;2023-02-12T15:01:22;3.22;;;1.73;;
48743;SDS011;34538;48.836;9.174;2023-02-12T15:03:54;2.42;;;1.55;;
48743;SDS011;34538;48.836;9.174;2023-02-12T15:06:26;3.15;;;2.00;;
48743;SDS011;34538;48.836;9.174;2023-02-12T15:09:05;5.60;;;2.50;;
48743;SDS011;34538;48.836;9.174;2023-02-12T15:11:37;6.70;;;2.78;;
48743;SDS011;34538;48.836;9.174;2023-02-12T15:14:11;4.55;;;1.90;;
48743;SDS011;34538;48.836;9.174;2023-02-12T15:16:46;3.30;;;1.83;;